createdAt,value
2023-12-13T00:01:32.785Z,98993.75
2023-12-13T00:03:59.964Z,98984.88
2023-12-13T00:06:27.090Z,98987.34
2023-12-13T00:08:54.236Z,98988.19
2023-12-13T00:11:21.353Z,98989.28
2023-12-13T00:13:48.461Z,98974.19
2023-12-13T00:16:16.131Z,98981.25
2023-12-13T00:18:43.354Z,98974.28
2023-12-13T00:21:11.343Z,98974.19
2023-12-13T00:23:38.811Z,98980.72
2023-12-13T00:26:06.050Z,98979.22
2023-12-13T00:28:35.045Z,98980.25
2023-12-13T00:31:02.234Z,98972.97
2023-12-13T00:33:29.421Z,98975.94
2023-12-13T00:35:56.609Z,98972.84
2023-12-13T00:38:23.643Z,98960.22
2023-12-13T00:40:50.672Z,98971.75
2023-12-13T00:43:18.322Z,98978.41
2023-12-13T00:45:45.477Z,98982.34
2023-12-13T00:48:12.763Z,98975.50
2023-12-13T00:50:40.831Z,98981.59
2023-12-13T00:53:08.422Z,98979.78
2023-12-13T00:55:35.697Z,98963.22
2023-12-13T00:58:02.825Z,98977.97
2023-12-13T01:00:30.856Z,98972.75
2023-12-13T01:02:58.371Z,98965.50
2023-12-13T01:05:25.488Z,98948.94
2023-12-13T01:07:53.921Z,98968.91
2023-12-13T01:10:21.463Z,98983.75
2023-12-13T01:12:48.711Z,98973.00
2023-12-13T01:15:15.968Z,98968.41
2023-12-13T01:17:43.099Z,98985.06
2023-12-13T01:20:11.004Z,98975.38
2023-12-13T01:22:38.405Z,98977.25
2023-12-13T01:25:07.034Z,98985.06
2023-12-13T01:27:34.298Z,98983.25
2023-12-13T01:30:01.550Z,98980.59
2023-12-13T01:32:28.892Z,98984.00
2023-12-13T01:34:55.957Z,98980.59
2023-12-13T01:37:23.002Z,98981.56
2023-12-13T01:39:50.051Z,98991.47
2023-12-13T01:42:17.979Z,98984.00
2023-12-13T01:44:45.026Z,98996.59
2023-12-13T01:47:13.334Z,98994.22
2023-12-13T01:49:41.092Z,98989.56
2023-12-13T01:52:08.890Z,98988.91
2023-12-13T01:54:37.981Z,98981.63
2023-12-13T01:57:05.726Z,98979.19
2023-12-13T01:59:34.969Z,98971.06
2023-12-13T02:02:02.456Z,98976.53
2023-12-13T02:04:30.247Z,98973.09
2023-12-13T02:06:57.384Z,98983.88
2023-12-13T02:09:24.393Z,98980.44
2023-12-13T02:11:51.569Z,98993.78
2023-12-13T02:14:19.518Z,98981.78
2023-12-13T02:16:46.790Z,98989.38
2023-12-13T02:19:13.987Z,98984.91
2023-12-13T02:21:41.143Z,98971.50
2023-12-13T02:24:09.669Z,98957.50
2023-12-13T02:26:43.227Z,98958.03
2023-12-13T02:29:10.847Z,98958.03
2023-12-13T02:31:39.069Z,98951.97
2023-12-13T02:34:06.207Z,98962.34
2023-12-13T02:36:33.402Z,98955.06
2023-12-13T02:39:02.874Z,98948.03
2023-12-13T02:41:30.724Z,98945.56
2023-12-13T02:43:57.806Z,98947.38
2023-12-13T02:46:24.976Z,98941.38
2023-12-13T02:48:52.176Z,98942.03
2023-12-13T02:51:19.729Z,98942.03
2023-12-13T02:53:46.996Z,98934.03
2023-12-13T02:56:14.106Z,98937.44
2023-12-13T02:58:41.175Z,98937.44
2023-12-13T03:01:08.473Z,98936.81
2023-12-13T03:03:35.784Z,98946.03
2023-12-13T03:06:03.101Z,98943.25
2023-12-13T03:08:30.361Z,98930.75
2023-12-13T03:10:57.492Z,98929.06
2023-12-13T03:13:25.138Z,98930.63
2023-12-13T03:15:52.197Z,98920.38
2023-12-13T03:18:19.425Z,98930.56
2023-12-13T03:20:46.601Z,98933.22
2023-12-13T03:23:13.645Z,98926.16
2023-12-13T03:25:40.794Z,98930.63
2023-12-13T03:28:07.949Z,98926.81
2023-12-13T03:30:35.105Z,98923.19
2023-12-13T03:33:02.266Z,98912.81
2023-12-13T03:35:29.362Z,98916.03
2023-12-13T03:37:56.423Z,98902.16
2023-12-13T03:40:23.562Z,98902.16
2023-12-13T03:42:50.643Z,98907.41
2023-12-13T03:45:17.645Z,98913.78
2023-12-13T03:47:45.176Z,98904.28
2023-12-13T03:50:12.709Z,98910.47
2023-12-13T03:52:39.905Z,98894.88
2023-12-13T03:55:07.866Z,98886.97
2023-12-13T03:57:35.326Z,98886.13
2023-12-13T04:00:02.616Z,98880.97
2023-12-13T04:02:39.692Z,98882.81
2023-12-13T04:05:07.345Z,98880.25
2023-12-13T04:07:35.295Z,98878.72
2023-12-13T04:10:02.673Z,98876.25
2023-12-13T04:12:29.834Z,98882.66
2023-12-13T04:14:56.871Z,98877.53
2023-12-13T04:17:23.958Z,98869.75
2023-12-13T04:19:51.028Z,98875.09
2023-12-13T04:22:18.154Z,98871.66
2023-12-13T04:24:45.263Z,98870.13
2023-12-13T04:27:12.404Z,98867.69
2023-12-13T04:29:39.817Z,98856.47
2023-12-13T04:32:07.747Z,98867.13
2023-12-13T04:34:35.093Z,98874.16
2023-12-13T04:37:02.300Z,98863.50
2023-12-13T04:39:29.394Z,98856.25
2023-12-13T04:41:56.449Z,98863.28
2023-12-13T04:44:28.838Z,98858.72
2023-12-13T04:46:56.554Z,98853.50
2023-12-13T04:49:24.041Z,98847.09
2023-12-13T04:51:51.352Z,98863.53
2023-12-13T04:54:20.346Z,98851.16
2023-12-13T04:56:47.455Z,98838.78
2023-12-13T04:59:14.668Z,98853.53
2023-12-13T05:01:42.249Z,98844.56
2023-12-13T05:04:09.338Z,98844.69
2023-12-13T05:06:36.529Z,98842.00
2023-12-13T05:09:03.912Z,98847.22
2023-12-13T05:11:30.986Z,98830.78
2023-12-13T05:13:58.078Z,98832.19
2023-12-13T05:16:25.250Z,98831.44
2023-12-13T05:18:52.397Z,98836.56
2023-12-13T05:21:19.569Z,98828.56
2023-12-13T05:23:46.653Z,98826.00
2023-12-13T05:26:13.716Z,98831.69
2023-12-13T05:28:40.882Z,98819.94
2023-12-13T05:31:18.061Z,98818.03
2023-12-13T05:33:45.115Z,98820.78
2023-12-13T05:36:12.225Z,98804.78
2023-12-13T05:38:39.252Z,98796.78
2023-12-13T05:41:06.584Z,98808.84
2023-12-13T05:43:36.510Z,98812.28
2023-12-13T05:46:08.821Z,98818.47
2023-12-13T05:48:36.063Z,98817.09
2023-12-13T05:51:03.333Z,98814.41
2023-12-13T05:53:30.413Z,98819.75
2023-12-13T05:55:57.756Z,98805.75
2023-12-13T05:58:24.968Z,98811.88
2023-12-13T06:00:52.127Z,98804.91
2023-12-13T06:03:19.290Z,98808.31
2023-12-13T06:05:46.613Z,98812.72
2023-12-13T06:08:13.779Z,98802.44
2023-12-13T06:10:41.052Z,98814.31
2023-12-13T06:13:08.166Z,98805.34
2023-12-13T06:15:35.609Z,98814.19
2023-12-13T06:18:02.838Z,98801.06
2023-12-13T06:20:29.986Z,98812.41
2023-12-13T06:22:57.080Z,98811.63
2023-12-13T06:25:24.257Z,98818.59
2023-12-13T06:27:51.381Z,98824.84
2023-12-13T06:30:18.435Z,98819.63
2023-12-13T06:32:45.597Z,98808.97
2023-12-13T06:35:14.913Z,98814.00
2023-12-13T06:37:43.084Z,98808.66
2023-12-13T06:40:10.839Z,98801.72
2023-12-13T06:42:37.873Z,98814.94
2023-12-13T06:45:05.883Z,98806.72
2023-12-13T06:47:33.430Z,98803.13
2023-12-13T06:50:00.813Z,98801.19
2023-12-13T06:52:27.949Z,98792.22
2023-12-13T06:54:55.009Z,98789.47
2023-12-13T06:57:22.102Z,98784.66
2023-12-13T06:59:49.138Z,98786.25
2023-12-13T07:02:16.365Z,98792.22
2023-12-13T07:04:44.784Z,98800.22
2023-12-13T07:07:16.297Z,98790.72
2023-12-13T07:09:45.692Z,98811.31
2023-12-13T07:12:12.965Z,98799.81
2023-12-13T07:14:40.064Z,98796.47
2023-12-13T07:17:07.166Z,98793.81
2023-12-13T07:19:34.335Z,98794.59
2023-12-13T07:22:01.471Z,98793.72
2023-12-13T07:24:28.499Z,98791.06
2023-12-13T07:26:55.573Z,98789.00
2023-12-13T07:29:22.685Z,98794.28
2023-12-13T07:31:49.876Z,98798.63
2023-12-13T07:34:19.373Z,98775.25
2023-12-13T07:36:49.708Z,98788.28
2023-12-13T07:39:17.165Z,98795.50
2023-12-13T07:41:44.314Z,98793.06
2023-12-13T07:44:11.670Z,98787.19
2023-12-13T07:46:39.810Z,98787.41
2023-12-13T07:49:07.234Z,98783.16
2023-12-13T07:51:35.254Z,98800.63
2023-12-13T07:54:03.956Z,98804.06
2023-12-13T07:56:32.673Z,98811.41
2023-12-13T07:59:00.914Z,98801.88
2023-12-13T08:01:28.577Z,98801.81
2023-12-13T08:03:57.422Z,98806.19
2023-12-13T08:06:25.017Z,98815.78
2023-12-13T08:08:52.885Z,98822.84
2023-12-13T08:11:20.163Z,98819.28
2023-12-13T08:13:47.467Z,98821.88
2023-12-13T08:16:14.681Z,98834.34
2023-12-13T08:18:42.329Z,98831.88
2023-12-13T08:21:09.932Z,98817.91
2023-12-13T08:23:37.134Z,98827.28
2023-12-13T08:26:04.504Z,98812.25
2023-12-13T08:28:31.708Z,98826.91
2023-12-13T08:31:08.735Z,98821.44
2023-12-13T08:33:45.766Z,98815.16
2023-12-13T08:36:14.268Z,98833.50
2023-12-13T08:38:42.232Z,98820.81
2023-12-13T08:41:12.894Z,98807.50
2023-12-13T08:43:40.143Z,98815.91
2023-12-13T08:46:07.439Z,98810.38
2023-12-13T08:48:35.392Z,98811.97
2023-12-13T08:51:03.817Z,98815.28
2023-12-13T08:53:31.039Z,98818.72
2023-12-13T08:55:58.178Z,98813.28
2023-12-13T08:58:25.952Z,98807.09
2023-12-13T09:00:53.132Z,98805.38
2023-12-13T09:03:21.020Z,98813.03
2023-12-13T09:05:48.514Z,98812.09
2023-12-13T09:08:15.722Z,98813.56
2023-12-13T09:10:43.061Z,98810.91
2023-12-13T09:13:10.284Z,98808.81
2023-12-13T09:15:37.330Z,98806.88
2023-12-13T09:18:04.564Z,98798.22
2023-12-13T09:20:31.762Z,98811.88
2023-12-13T09:22:58.961Z,98806.53
2023-12-13T09:25:26.743Z,98802.78
2023-12-13T09:27:54.074Z,98800.25
2023-12-13T09:30:21.414Z,98803.44
2023-12-13T09:32:48.696Z,98802.47
2023-12-13T09:35:16.188Z,98804.19
2023-12-13T09:37:43.392Z,98789.34
2023-12-13T09:40:18.661Z,98793.53
2023-12-13T09:42:47.619Z,98801.84
2023-12-13T09:45:24.238Z,98794.56
2023-12-13T09:47:54.257Z,98802.06
2023-12-13T09:50:24.705Z,98813.47
2023-12-13T09:52:54.279Z,98803.75
2023-12-13T09:55:21.603Z,98806.31
2023-12-13T09:57:48.731Z,98810.78
2023-12-13T10:00:16.371Z,98798.66
2023-12-13T10:02:45.496Z,98815.53
2023-12-13T10:05:13.360Z,98816.47
2023-12-13T10:07:42.356Z,98821.06
2023-12-13T10:10:10.319Z,98820.31
2023-12-13T10:12:39.712Z,98812.72
2023-12-13T10:15:14.071Z,98820.53
2023-12-13T10:17:42.769Z,98816.34
2023-12-13T10:20:12.085Z,98804.94
2023-12-13T10:22:40.554Z,98806.44
2023-12-13T10:25:08.497Z,98810.38
2023-12-13T10:27:35.804Z,98805.69
2023-12-13T10:30:05.514Z,98803.75
2023-12-13T10:32:33.134Z,98795.44
2023-12-13T10:35:05.368Z,98795.31
2023-12-13T10:37:36.456Z,98799.47
2023-12-13T10:40:04.959Z,98791.91
2023-12-13T10:42:38.283Z,98801.84
2023-12-13T10:45:10.752Z,98798.63
2023-12-13T10:47:49.215Z,98801.72
2023-12-13T10:50:16.676Z,98807.50
2023-12-13T10:52:47.078Z,98794.78
2023-12-13T10:55:16.377Z,98805.91
2023-12-13T10:57:43.745Z,98790.41
2023-12-13T11:00:12.128Z,98792.72
2023-12-13T11:02:50.657Z,98783.09
2023-12-13T11:05:18.625Z,98795.91
2023-12-13T11:07:47.687Z,98792.88
2023-12-13T11:10:16.187Z,98799.59
2023-12-13T11:12:53.642Z,98790.38
2023-12-13T11:15:21.334Z,98789.44
2023-12-13T11:17:51.933Z,98779.47
2023-12-13T11:20:22.113Z,98790.78
2023-12-13T11:22:50.262Z,98790.47
2023-12-13T11:25:18.750Z,98788.28
2023-12-13T11:27:54.338Z,98789.78
2023-12-13T11:30:23.129Z,98783.69
2023-12-13T11:32:53.118Z,98787.97
2023-12-13T11:35:22.038Z,98787.09
2023-12-13T11:37:56.030Z,98786.34
2023-12-13T11:40:23.318Z,98786.47
2023-12-13T11:42:53.273Z,98778.56
2023-12-13T11:45:21.254Z,98781.69
2023-12-13T11:47:51.047Z,98784.59
2023-12-13T11:50:21.070Z,98790.03
2023-12-13T11:52:49.227Z,98779.34
2023-12-13T11:55:23.680Z,98768.91
2023-12-13T11:57:51.822Z,98771.06
2023-12-13T12:00:22.053Z,98762.06
2023-12-13T12:02:55.286Z,98769.97
2023-12-13T12:05:26.113Z,98764.97
2023-12-13T12:08:02.562Z,98761.44
2023-12-13T12:10:32.971Z,98772.25
2023-12-13T12:13:04.560Z,98767.38
2023-12-13T12:15:34.891Z,98772.59
2023-12-13T12:18:05.635Z,98762.75
2023-12-13T12:20:32.721Z,98761.59
2023-12-13T12:23:02.549Z,98755.06
2023-12-13T12:25:31.060Z,98757.53
2023-12-13T12:27:58.250Z,98752.19
2023-12-13T12:30:26.633Z,98757.19
2023-12-13T12:32:53.937Z,98752.06
2023-12-13T12:35:21.066Z,98750.88
2023-12-13T12:37:48.102Z,98749.03
2023-12-13T12:42:43.436Z,98750.75
2023-12-13T12:45:10.717Z,98750.63
2023-12-13T12:47:38.265Z,98750.03
2023-12-13T12:50:07.019Z,98743.38
2023-12-13T12:52:34.257Z,98741.75
2023-12-13T12:55:01.388Z,98735.47
2023-12-13T12:57:28.517Z,98738.16
2023-12-13T12:59:56.069Z,98735.97
2023-12-13T13:02:23.558Z,98738.66
2023-12-13T13:04:50.938Z,98750.19
2023-12-13T13:07:18.172Z,98731.19
2023-12-13T13:09:46.023Z,98742.50
2023-12-13T13:12:13.202Z,98733.22
2023-12-13T13:14:40.421Z,98750.63
2023-12-13T13:17:07.613Z,98750.75
2023-12-13T13:19:34.843Z,98752.56
2023-12-13T13:22:05.938Z,98749.16
2023-12-13T13:24:38.472Z,98744.88
2023-12-13T13:27:11.215Z,98751.84
2023-12-13T13:29:44.946Z,98754.53
2023-12-13T13:32:12.450Z,98742.56
2023-12-13T13:34:40.711Z,98753.88
2023-12-13T13:37:07.882Z,98753.88
2023-12-13T13:39:35.061Z,98760.19
2023-12-13T13:42:03.970Z,98756.75
2023-12-13T13:44:32.551Z,98753.38
2023-12-13T13:46:59.664Z,98746.75
2023-12-13T13:49:27.159Z,98755.28
2023-12-13T13:51:54.504Z,98762.44
2023-12-13T13:54:21.613Z,98755.97
2023-12-13T13:56:48.759Z,98759.38
2023-12-13T13:59:15.868Z,98759.38
2023-12-13T14:01:43.078Z,98759.91
2023-12-13T14:04:10.151Z,98763.56
2023-12-13T14:06:37.257Z,98759.63
2023-12-13T14:09:05.833Z,98759.75
2023-12-13T14:11:33.941Z,98770.44
2023-12-13T14:14:01.189Z,98783.03
2023-12-13T14:16:48.207Z,98783.03
2023-12-13T14:20:27.133Z,98780.00
2023-12-13T14:24:08.638Z,98779.72
2023-12-13T14:27:49.117Z,98772.25
2023-12-13T14:31:31.202Z,98792.88
2023-12-13T14:35:12.304Z,98791.19
2023-12-13T14:38:54.189Z,98782.53
2023-12-13T14:42:35.138Z,98792.03
2023-12-13T14:45:16.144Z,98797.16
2023-12-13T14:47:44.083Z,98798.31
2023-12-13T14:50:12.826Z,98801.41
2023-12-13T14:52:41.654Z,98812.00
2023-12-13T14:55:09.804Z,98794.69
2023-12-13T14:57:38.402Z,98806.88
2023-12-13T15:00:12.833Z,98806.75
2023-12-13T15:02:43.360Z,98813.91
2023-12-13T15:05:14.255Z,98808.88
2023-12-13T15:07:42.607Z,98812.72
2023-12-13T15:10:13.158Z,98798.75
2023-12-13T15:12:40.640Z,98804.84
2023-12-13T15:15:09.131Z,98811.78
2023-12-13T15:17:36.714Z,98818.81
2023-12-13T15:20:10.997Z,98819.69
2023-12-13T15:22:38.560Z,98829.50
2023-12-13T15:25:11.826Z,98812.19
2023-12-13T15:27:42.774Z,98816.34
2023-12-13T15:30:12.735Z,98813.16
2023-12-13T15:32:44.698Z,98810.50
2023-12-13T15:35:12.478Z,98831.63
2023-12-13T15:37:40.107Z,98825.53
2023-12-13T15:40:09.938Z,98818.59
2023-12-13T15:42:37.270Z,98833.34
2023-12-13T15:45:06.101Z,98833.44
2023-12-13T15:47:33.608Z,98839.66
2023-12-13T15:50:01.751Z,98839.66
2023-12-13T15:52:28.941Z,98848.50
2023-12-13T15:54:57.307Z,98851.28
2023-12-13T15:57:25.142Z,98849.56
2023-12-13T15:59:52.288Z,98855.75
2023-12-13T16:02:20.714Z,98844.53
2023-12-13T16:04:47.870Z,98852.53
2023-12-13T16:07:15.711Z,98853.50
2023-12-13T16:09:42.889Z,98845.50
2023-12-13T16:12:10.980Z,98838.88
2023-12-13T16:14:38.077Z,98845.91
2023-12-13T16:17:05.281Z,98846.78
2023-12-13T16:19:32.512Z,98845.25
2023-12-13T16:21:59.707Z,98853.19
2023-12-13T16:24:26.872Z,98850.59
2023-12-13T16:26:54.272Z,98852.72
2023-12-13T16:29:29.860Z,98858.19
2023-12-13T16:31:58.148Z,98859.53
2023-12-13T16:34:25.401Z,98860.81
2023-12-13T16:36:52.481Z,98871.28
2023-12-13T16:39:20.820Z,98874.06
2023-12-13T16:41:48.200Z,98870.84
2023-12-13T16:44:16.991Z,98864.41
2023-12-13T16:46:44.219Z,98874.19
2023-12-13T16:49:11.464Z,98882.13
2023-12-13T16:51:39.924Z,98887.53
2023-12-13T16:54:07.189Z,98894.69
2023-12-13T16:56:34.376Z,98893.81
2023-12-13T16:59:02.825Z,98897.28
2023-12-13T17:01:30.943Z,98900.13
2023-12-13T17:04:00.182Z,98908.88
2023-12-13T17:06:29.320Z,98906.31
2023-12-13T17:09:00.556Z,98905.34
2023-12-13T17:11:29.498Z,98911.19
2023-12-13T17:13:57.001Z,98907.22
2023-12-13T17:16:24.331Z,98918.84
2023-12-13T17:18:51.645Z,98916.53
2023-12-13T17:21:18.812Z,98914.16
2023-12-13T17:23:45.881Z,98924.81
2023-12-13T17:26:14.500Z,98933.13
2023-12-13T17:28:42.232Z,98941.22
2023-12-13T17:31:09.503Z,98933.81
2023-12-13T17:33:36.702Z,98941.50
2023-12-13T17:36:04.207Z,98938.28
2023-12-13T17:38:31.312Z,98937.44
2023-12-13T17:40:58.747Z,98948.72
2023-12-13T17:43:25.994Z,98956.72
2023-12-13T17:45:53.265Z,98947.97
2023-12-13T17:48:20.732Z,98955.88
2023-12-13T17:50:48.171Z,98963.88
2023-12-13T17:53:16.112Z,98963.97
2023-12-13T17:55:43.333Z,98971.56
2023-12-13T17:58:11.725Z,98972.44
2023-12-13T18:00:38.902Z,98974.34
2023-12-13T18:03:06.081Z,98975.09
2023-12-13T18:05:33.207Z,98978.81
2023-12-13T18:08:00.573Z,98993.75
2023-12-13T18:10:27.896Z,98997.28
2023-12-13T18:12:55.074Z,98989.75
2023-12-13T18:15:22.324Z,98994.03
2023-12-13T18:17:49.701Z,99004.50
2023-12-13T18:20:18.184Z,99000.31
2023-12-13T18:22:45.512Z,99012.25
2023-12-13T18:25:13.005Z,99015.66
2023-12-13T18:27:40.170Z,99013.78
2023-12-13T18:30:08.186Z,99017.06
2023-12-13T18:32:35.801Z,99012.72
2023-12-13T18:35:03.179Z,99017.75
2023-12-13T18:37:31.504Z,99023.06
2023-12-13T18:39:58.784Z,99030.91
2023-12-13T18:42:25.878Z,99036.88
2023-12-13T18:44:54.375Z,99042.88
2023-12-13T18:47:21.943Z,99035.09
2023-12-13T18:49:49.085Z,99049.06
2023-12-13T18:52:16.316Z,99039.53
2023-12-13T18:54:43.476Z,99050.75
2023-12-13T18:57:10.566Z,99051.72
2023-12-13T18:59:37.621Z,99061.34
2023-12-13T19:02:04.825Z,99045.75
2023-12-13T19:04:32.026Z,99060.59
2023-12-13T19:06:59.209Z,99065.16
2023-12-13T19:09:26.661Z,99070.50
2023-12-13T19:11:53.710Z,99071.25
2023-12-13T19:14:20.898Z,99068.88
2023-12-13T19:16:49.662Z,99079.53
2023-12-13T19:19:20.511Z,99083.72
2023-12-13T19:21:49.485Z,99080.41
2023-12-13T19:24:17.302Z,99087.53
2023-12-13T19:26:44.498Z,99082.50
2023-12-13T19:29:12.956Z,99098.41
2023-12-13T19:31:40.248Z,99094.91
2023-12-13T19:34:09.689Z,99096.78
2023-12-13T19:36:39.257Z,99092.50
2023-12-13T19:39:06.607Z,99099.66
2023-12-13T19:41:34.231Z,99101.53
2023-12-13T19:44:01.383Z,99105.34
2023-12-13T19:46:28.618Z,99112.50
2023-12-13T19:48:55.786Z,99110.78
2023-12-13T19:51:24.458Z,99108.91
2023-12-13T19:53:51.942Z,99110.03
2023-12-13T19:56:19.481Z,99125.81
2023-12-13T19:58:46.566Z,99125.19
2023-12-13T20:01:15.093Z,99128.50
2023-12-13T20:03:42.355Z,99137.44
2023-12-13T20:06:11.351Z,99129.44
2023-12-13T20:08:38.769Z,99130.66
2023-12-13T20:11:06.150Z,99126.28
2023-12-13T20:13:42.077Z,99132.34
2023-12-13T20:16:13.350Z,99138.75
2023-12-13T20:18:42.167Z,99130.94
2023-12-13T20:21:09.347Z,99136.09
2023-12-13T20:23:36.451Z,99147.78
2023-12-13T20:26:05.792Z,99157.75
2023-12-13T20:28:33.920Z,99143.00
2023-12-13T20:31:01.758Z,99152.72
2023-12-13T20:33:28.987Z,99166.03
2023-12-13T20:35:57.748Z,99168.63
2023-12-13T20:38:25.129Z,99172.25
2023-12-13T20:40:52.356Z,99173.09
2023-12-13T20:43:21.156Z,99176.69
2023-12-13T20:45:48.246Z,99178.50
2023-12-13T20:48:15.467Z,99177.59
2023-12-13T20:50:43.722Z,99183.09
2023-12-13T20:53:10.928Z,99189.38
2023-12-13T20:55:38.106Z,99191.25
2023-12-13T20:58:05.234Z,99198.50
2023-12-13T21:00:34.250Z,99204.78
2023-12-13T21:03:02.108Z,99207.44
2023-12-13T21:05:31.232Z,99199.63
2023-12-13T21:07:58.920Z,99204.00
2023-12-13T21:10:26.552Z,99212.00
2023-12-13T21:12:53.751Z,99205.63
2023-12-13T21:15:20.935Z,99214.66
2023-12-13T21:17:48.147Z,99213.13
2023-12-13T21:20:15.545Z,99230.84
2023-12-13T21:22:42.819Z,99230.16
2023-12-13T21:25:10.157Z,99228.34
2023-12-13T21:27:37.609Z,99236.50
2023-12-13T21:30:06.644Z,99239.75
2023-12-13T21:32:34.334Z,99241.78
2023-12-13T21:35:01.918Z,99243.66
2023-12-13T21:37:29.091Z,99242.03
2023-12-13T21:39:56.724Z,99248.31
2023-12-13T21:42:24.939Z,99253.66
2023-12-13T21:44:52.042Z,99251.16
2023-12-13T21:47:20.343Z,99259.16
2023-12-13T21:49:48.057Z,99261.91
2023-12-13T21:52:19.260Z,99273.56
2023-12-13T21:54:47.188Z,99270.16
2023-12-13T21:57:14.414Z,99281.56
2023-12-13T21:59:41.565Z,99274.53
2023-12-13T22:02:08.924Z,99289.66
2023-12-13T22:04:36.146Z,99285.56
2023-12-13T22:07:03.428Z,99287.94
2023-12-13T22:09:30.681Z,99288.88
2023-12-13T22:11:57.811Z,99291.53
2023-12-13T22:14:25.036Z,99293.34
2023-12-13T22:16:53.764Z,99294.19
2023-12-13T22:19:39.539Z,99301.59
2023-12-13T22:22:06.719Z,99301.53
2023-12-13T22:24:33.854Z,99313.81
2023-12-13T22:27:04.045Z,99304.84
2023-12-13T22:29:31.129Z,99321.78
2023-12-13T22:31:58.321Z,99319.97
2023-12-13T22:34:25.741Z,99319.97
2023-12-13T22:36:52.845Z,99325.25
2023-12-13T22:39:19.946Z,99329.63
2023-12-13T22:41:47.006Z,99338.47
2023-12-13T22:44:14.181Z,99335.91
2023-12-13T22:46:41.309Z,99342.09
2023-12-13T22:49:09.513Z,99345.72
2023-12-13T22:52:17.271Z,99343.91
2023-12-13T22:54:23.732Z,99342.94
2023-12-13T22:56:51.159Z,99359.69
2023-12-13T22:59:18.259Z,99356.97
2023-12-13T23:01:48.764Z,99357.56
2023-12-13T23:04:16.225Z,99362.97
2023-12-13T23:06:44.022Z,99364.69
2023-12-13T23:09:14.093Z,99359.44
2023-12-13T23:11:43.293Z,99373.34
2023-12-13T23:14:10.443Z,99362.97
2023-12-13T23:16:38.439Z,99370.63
2023-12-13T23:19:05.867Z,99365.56
2023-12-13T23:21:33.093Z,99371.28
2023-12-13T23:24:00.218Z,99377.47
2023-12-13T23:26:27.310Z,99382.91
2023-12-13T23:28:54.479Z,99383.66
2023-12-13T23:31:29.393Z,99388.13
2023-12-13T23:34:00.927Z,99393.56
2023-12-13T23:36:28.091Z,99394.50
2023-12-13T23:38:55.523Z,99394.50
2023-12-13T23:41:23.520Z,99401.66
2023-12-13T23:43:50.945Z,99402.50
2023-12-13T23:46:18.100Z,99400.88
2023-12-13T23:48:46.227Z,99403.47
2023-12-13T23:51:14.683Z,99416.00
2023-12-13T23:53:41.927Z,99424.84
2023-12-13T23:56:23.782Z,99418.66
2023-12-13T23:58:51.813Z,99411.97
